Погода Прудняна неделю

Смоленская область, Россия

24 - 30 мая
  • 24мая
    Сегодня
    +6°
    +22°
    Ясно и безоблачно
    ВремяПогодаТемператураВлажностьДавлениеВетер, м/сВероятность осадков
    00:00Ясно и безоблачно+10°C53 %756 мм0.5 м/с2 %
    03:00Ясно и безоблачно+9°C58 %757 мм0.9 м/с2 %
    06:00Ясно и безоблачно+8°C63 %758 мм0.2 м/с2 %
    09:00Ясно и безоблачно+16°C45 %759 мм1.1 м/с2 %
    12:00Ясно и безоблачно+20°C34 %759 мм1.5 м/с2 %
    15:00Ясно и безоблачно+21°C33 %758 мм1.7 м/с2 %
    18:00Ясно и безоблачно+21°C36 %757 мм1.7 м/с2 %
    21:00Ясно и безоблачно+14°C54 %757 мм0.7 м/с2 %
  • 25мая
    Суббота
    +8°
    +24°
    Ясно и безоблачно
    ВремяПогодаТемператураВлажностьДавлениеВетер, м/сВероятность осадков
    00:00Ясно и безоблачно+9°C65 %757 мм0.4 м/с2 %
    03:00Ясно и безоблачно+7°C68 %757 мм0.5 м/с2 %
    06:00Ясно и безоблачно+9°C68 %757 мм0.6 м/с2 %
    09:00Ясно и безоблачно+16°C50 %757 мм1.2 м/с2 %
    12:00Ясно и безоблачно+21°C34 %756 мм1.6 м/с2 %
    15:00Ясно и безоблачно+23°C32 %755 мм1.5 м/с2 %
    18:00Ясно и безоблачно+24°C34 %754 мм0.9 м/с2 %
    21:00Ясно и безоблачно+16°C61 %753 мм0.0 м/с2 %
  • 26мая
    Воскресенье
    +9°
    +25°
    Облачно с прояснениями
    ВремяПогодаТемператураВлажностьДавлениеВетер, м/сВероятность осадков
    00:00Ясно и безоблачно+11°C71 %753 мм0.2 м/с2 %
    03:00Ясно и безоблачно+9°C82 %753 мм0.0 м/с2 %
    06:00Ясно и безоблачно+10°C80 %753 мм0.0 м/с2 %
    09:00Ясно и безоблачно+19°C57 %753 мм0.7 м/с2 %
    12:00Облачно с прояснениями+24°C36 %753 мм1.8 м/с3 %
    15:00Облачно с прояснениями+24°C37 %752 мм1.4 м/с18 %
    18:00Практически безоблачно+23°C56 %752 мм1.7 м/с28 %
    21:00Практически безоблачно+17°C80 %753 мм0.1 м/с10 %
  • 27мая
    Понедельник
    +10°
    +25°
    Пасмурно, сплошная облачность
    ВремяПогодаТемператураВлажностьДавлениеВетер, м/сВероятность осадков
    00:00Практически безоблачно+13°C88 %753 мм0.2 м/с2 %
    03:00Ясно и безоблачно+12°C63 %754 мм0.8 м/с2 %
    06:00Ясно и безоблачно+10°C65 %754 мм1.0 м/с3 %
    09:00Ясно и безоблачно+19°C60 %755 мм1.4 м/с2 %
    12:00Небольшая облачность+23°C44 %755 мм1.8 м/с14 %
    15:00Пасмурно, сплошная облачность+23°C37 %754 мм0.7 м/с18 %
    18:00Небольшая облачность+23°C41 %753 мм1.6 м/с18 %
    21:00Ясно и безоблачно+17°C59 %753 мм0.7 м/с2 %
  • 28мая
    Вторник
    +11°
    +27°
    Небольшая облачность
    ВремяПогодаТемператураВлажностьДавлениеВетер, м/сВероятность осадков
    00:00Ясно и безоблачно+13°C68 %753 мм0.5 м/с2 %
    03:00Ясно и безоблачно+11°C79 %753 мм0.7 м/с2 %
    06:00Ясно и безоблачно+10°C77 %753 мм0.2 м/с2 %
    09:00Ясно и безоблачно+20°C52 %753 мм1.0 м/с2 %
    12:00Практически безоблачно+24°C38 %753 мм1.0 м/с6 %
    15:00Небольшая облачность+25°C33 %752 мм0.0 м/с5 %
    18:00Практически безоблачно+25°C33 %751 мм0.2 м/с2 %
    21:00Ясно и безоблачно+18°C56 %751 мм0.5 м/с2 %
Мы используем cookies
Соглашаюсь